Time;durP1;ratioP1;P1;durP2;ratioP2;P2;SDS_P1;SDS_P2;PMS_P1;PMS_P2;Temp;Humidity;BMP_temperature;BMP_pressure;BME280_temperature;BME280_humidity;BME280_pressure;Samples;Min_cycle;Max_cycle;Signal;HPM_P1;HPM_P2
2021/01/06 00:01:21;;;;;;;1999.90;999.90;;;;;;;0.70;96.76;101310.66;1839163;77;20972;-64
2021/01/06 00:03:49;;;;;;;1999.90;999.90;;;;;;;0.68;96.83;101308.16;1843261;77;22271;-64
2021/01/06 00:06:19;;;;;;;1999.90;999.90;;;;;;;0.66;96.96;101305.36;1776808;80;20974;-64
2021/01/06 00:08:47;;;;;;;1999.90;999.90;;;;;;;0.66;97.09;101299.38;1799435;78;20941;-62
2021/01/06 00:11:17;;;;;;;1999.90;999.90;;;;;;;0.66;97.14;101304.00;1808267;78;21127;-61
2021/01/06 00:13:47;;;;;;;1999.90;999.90;;;;;;;0.65;97.10;101292.27;1799577;78;21523;-62
2021/01/06 00:16:14;;;;;;;1999.90;999.90;;;;;;;0.64;97.18;101300.97;1807503;78;21206;-61
2021/01/06 00:18:42;;;;;;;1999.90;999.90;;;;;;;0.64;97.29;101296.88;1800967;78;21511;-61
2021/01/06 00:21:11;;;;;;;1999.90;999.90;;;;;;;0.63;97.27;101294.38;1802923;78;21114;-61
2021/01/06 00:23:39;;;;;;;1999.90;999.90;;;;;;;0.64;97.31;101282.42;1796911;78;21575;-61
2021/01/06 00:26:06;;;;;;;1999.90;999.90;;;;;;;0.64;97.32;101286.52;1801328;78;20970;-61
2021/01/06 00:28:34;;;;;;;1999.90;999.90;;;;;;;0.64;97.27;101290.07;1813757;78;22269;-62
2021/01/06 00:31:02;;;;;;;1999.90;999.90;;;;;;;0.63;97.34;101293.85;1806851;78;21120;-61
2021/01/06 00:33:34;;;;;;;1999.90;999.90;;;;;;;0.64;97.41;101289.23;1805597;78;21155;-61
2021/01/06 00:36:09;;;;;;;1999.90;999.90;;;;;;;0.66;97.49;101281.67;1806265;78;20962;-61
2021/01/06 00:38:38;;;;;;;1999.90;999.90;;;;;;;0.68;97.48;101280.08;1801036;77;21120;-61
2021/01/06 00:41:06;;;;;;;1999.90;999.90;;;;;;;0.69;97.45;101281.22;1792185;78;21353;-60
2021/01/06 00:43:34;;;;;;;1999.90;999.90;;;;;;;0.71;97.34;101290.53;1791141;78;20955;-63
2021/01/06 00:46:02;;;;;;;1999.90;999.90;;;;;;;0.70;97.31;101292.95;1769016;80;20960;-62
2021/01/06 00:48:30;;;;;;;1999.90;999.90;;;;;;;0.70;97.37;101292.42;1758209;80;21158;-61
2021/01/06 00:51:00;;;;;;;1999.90;999.90;;;;;;;0.70;97.30;101297.87;1761768;79;20984;-61
2021/01/06 00:53:28;;;;;;;1999.90;999.90;;;;;;;0.71;97.25;101301.43;1753703;80;21612;-64
2021/01/06 00:55:57;;;;;;;1999.90;999.90;;;;;;;0.68;97.30;101290.45;1766395;78;20984;-62
2021/01/06 00:58:25;;;;;;;1999.90;999.90;;;;;;;0.68;97.36;101287.73;1758176;81;21154;-63
2021/01/06 01:00:55;;;;;;;1999.90;999.90;;;;;;;0.69;97.46;101287.20;1755324;81;21130;-61
2021/01/06 01:03:24;;;;;;;1999.90;999.90;;;;;;;0.69;97.50;101289.92;1763487;81;21537;-61
2021/01/06 01:05:54;;;;;;;1999.90;999.90;;;;;;;0.69;97.51;101293.48;1755880;81;21456;-61
2021/01/06 01:08:22;;;;;;;1999.90;999.90;;;;;;;0.70;97.54;101290.23;1791226;79;21570;-63
2021/01/06 01:10:52;;;;;;;1999.90;999.90;;;;;;;0.73;97.55;101285.69;1793374;79;21547;-64
2021/01/06 01:13:24;;;;;;;1999.90;999.90;;;;;;;0.75;97.55;101293.94;1790757;79;21080;-63
2021/01/06 01:15:56;;;;;;;1999.90;999.90;;;;;;;0.75;97.48;101291.75;1790506;79;21586;-65
2021/01/06 01:18:28;;;;;;;1999.90;999.90;;;;;;;0.77;97.45;101286.91;1803893;79;21629;-62
2021/01/06 01:21:01;;;;;;;1999.90;999.90;;;;;;;0.80;97.42;101288.64;1794881;79;21503;-61
2021/01/06 01:23:29;;;;;;;1999.90;999.90;;;;;;;0.80;97.31;101281.83;1799342;79;21146;-64
2021/01/06 01:25:59;;;;;;;1999.90;999.90;;;;;;;0.83;97.17;101281.38;1794616;79;20953;-61
2021/01/06 01:28:27;;;;;;;1999.90;999.90;;;;;;;0.82;97.14;101274.27;1796076;79;20969;-61
2021/01/06 01:30:55;;;;;;;1999.90;999.90;;;;;;;0.81;97.14;101284.03;1795995;79;22103;-65
2021/01/06 01:33:25;;;;;;;1999.90;999.90;;;;;;;0.80;97.14;101281.83;1794644;79;20965;-61
2021/01/06 01:35:55;;;;;;;1999.90;999.90;;;;;;;0.79;97.08;101278.80;1798039;79;21111;-64
2021/01/06 01:38:25;;;;;;;1999.90;999.90;;;;;;;0.78;97.07;101279.87;1797165;78;20973;-61
2021/01/06 01:41:08;;;;;;;1999.90;999.90;;;;;;;0.80;97.11;101279.64;1805129;79;21103;-60
2021/01/06 01:43:36;;;;;;;1999.90;999.90;;;;;;;0.78;97.03;101280.39;1797738;79;21345;-64
2021/01/06 01:46:10;;;;;;;1999.90;999.90;;;;;;;0.75;97.19;101278.13;1804708;78;21139;-64
2021/01/06 01:48:41;;;;;;;1999.90;999.90;;;;;;;0.76;97.39;101275.17;1806463;78;20968;-61
2021/01/06 01:51:36;;;;;;;1999.90;999.90;;;;;;;0.76;97.40;101280.63;1792917;77;21556;-64
2021/01/06 01:54:14;;;;;;;1999.90;999.90;;;;;;;0.71;97.48;101266.84;1818041;77;21099;-63
2021/01/06 01:56:57;;;;;;;1999.90;999.90;;;;;;;0.68;97.86;101270.02;1819721;77;21139;-63
2021/01/06 01:59:46;;;;;;;1999.90;999.90;;;;;;;0.70;97.88;101260.26;1814951;77;21598;-63
2021/01/06 02:02:59;;;;;;;1999.90;999.90;;;;;;;0.76;97.90;101256.63;1870563;75;22643;-61
2021/01/06 02:06:06;;;;;;;1999.90;999.90;;;;;;;0.74;97.79;101265.56;1843456;76;20996;-62
2021/01/06 02:08:41;;;;;;;1999.90;999.90;;;;;;;0.73;97.76;101267.98;1843106;77;21434;-61
2021/01/06 02:11:16;;;;;;;1999.90;999.90;;;;;;;0.73;97.85;101268.81;1842056;76;21003;-61
2021/01/06 02:13:56;;;;;;;1999.90;999.90;;;;;;;0.75;97.87;101267.22;1848998;76;27001;-61
2021/01/06 02:16:45;;;;;;;1999.90;999.90;;;;;;;0.73;97.95;101266.09;1847116;76;21502;-61
2021/01/06 02:19:15;;;;;;;1999.90;999.90;;;;;;;0.73;98.01;101262.00;1848144;76;20919;-61
2021/01/06 02:21:42;;;;;;;1999.90;999.90;;;;;;;0.75;98.01;101261.77;1821903;77;22349;-61
2021/01/06 02:24:10;;;;;;;1999.90;999.90;;;;;;;0.76;97.97;101263.44;1783609;79;21567;-64
2021/01/06 02:26:38;;;;;;;1999.90;999.90;;;;;;;0.75;98.05;101263.97;1783145;78;20977;-61
2021/01/06 02:29:06;;;;;;;1999.90;999.90;;;;;;;0.75;98.23;101262.61;1808724;77;21020;-61
2021/01/06 02:31:34;;;;;;;1999.90;999.90;;;;;;;0.75;98.29;101257.16;1785843;79;21201;-61
2021/01/06 02:34:02;;;;;;;1999.90;999.90;;;;;;;0.76;98.24;101260.19;1767503;78;21377;-64
2021/01/06 02:36:29;;;;;;;1999.90;999.90;;;;;;;0.79;98.14;101268.44;1790717;79;21004;-61
2021/01/06 02:38:58;;;;;;;1999.90;999.90;;;;;;;0.81;98.08;101263.59;1789114;79;21012;-61
2021/01/06 02:41:25;;;;;;;1999.90;999.90;;;;;;;0.81;97.90;101269.88;1788930;79;21127;-63
2021/01/06 02:43:53;;;;;;;1999.90;999.90;;;;;;;0.80;97.93;101276.91;1782208;78;21103;-64
2021/01/06 02:46:21;;;;;;;1999.90;999.90;;;;;;;0.78;98.04;101273.58;1792083;79;21391;-61
2021/01/06 02:48:49;;;;;;;1999.90;999.90;;;;;;;0.79;98.11;101280.17;1787570;79;21139;-64
2021/01/06 02:51:27;;;;;;;1999.90;999.90;;;;;;;0.79;98.18;101282.06;1788148;79;20992;-62
2021/01/06 02:53:59;;;;;;;1999.90;999.90;;;;;;;0.79;98.24;101282.89;1774414;79;21116;-64
2021/01/06 02:56:27;;;;;;;1999.90;999.90;;;;;;;0.80;98.27;101291.37;1793493;79;21415;-61
2021/01/06 02:58:55;;;;;;;1999.90;999.90;;;;;;;0.82;98.27;101285.70;1731520;79;21476;-62
2021/01/06 03:01:24;;;;;;;1999.90;999.90;;;;;;;0.81;98.28;101290.31;1787320;79;21523;-61
2021/01/06 03:03:52;;;;;;;1999.90;999.90;;;;;;;0.84;98.25;101291.75;1762855;79;21571;-64
2021/01/06 03:06:32;;;;;;;1999.90;999.90;;;;;;;0.85;98.22;101283.88;1756174;79;21087;-61
2021/01/06 03:09:01;;;;;;;1999.90;999.90;;;;;;;0.85;98.21;101291.52;1792484;79;20921;-64
2021/01/06 03:11:29;;;;;;;1999.90;999.90;;;;;;;0.86;98.25;101294.55;1786762;79;21375;-61
2021/01/06 03:13:57;;;;;;;1999.90;999.90;;;;;;;0.85;98.28;101298.87;1785980;79;21007;-63
2021/01/06 03:16:25;;;;;;;1999.90;999.90;;;;;;;0.87;98.28;101307.65;1753297;80;21131;-64
2021/01/06 03:18:53;;;;;;;1999.90;999.90;;;;;;;0.87;98.24;101313.94;1779839;79;21578;-61
2021/01/06 03:21:20;;;;;;;1999.90;999.90;;;;;;;0.89;98.21;101306.89;1752039;80;21118;-64
2021/01/06 03:23:51;;;;;;;1999.90;999.90;;;;;;;0.90;98.14;101312.12;1785962;79;22360;-62
2021/01/06 03:26:21;;;;;;;1999.90;999.90;;;;;;;0.91;98.12;101296.06;1755921;80;21142;-64
2021/01/06 03:28:49;;;;;;;1999.90;999.90;;;;;;;0.93;98.06;101299.40;1714000;79;21087;-62
2021/01/06 03:31:23;;;;;;;1999.90;999.90;;;;;;;0.93;98.00;101306.21;1790160;79;20948;-62
2021/01/06 03:34:00;;;;;;;1999.90;999.90;;;;;;;0.94;98.00;101299.70;1802645;77;20949;-63
2021/01/06 03:36:31;;;;;;;1999.90;999.90;;;;;;;0.95;98.05;101299.17;1740217;80;21219;-63
2021/01/06 03:39:03;;;;;;;1999.90;999.90;;;;;;;0.92;98.05;101300.45;1778532;78;20952;-61
2021/01/06 03:41:31;;;;;;;1999.90;999.90;;;;;;;0.94;98.07;101297.51;1765573;79;20985;-63
2021/01/06 03:44:06;;;;;;;1999.90;999.90;;;;;;;0.93;98.05;101293.95;1781498;78;21120;-61
2021/01/06 03:46:56;;;;;;;1999.90;999.90;;;;;;;0.98;97.99;101296.52;1803044;79;20969;-61
2021/01/06 03:49:53;;;;;;;1999.90;999.90;;;;;;;0.97;97.95;101287.52;1791092;78;21832;-64
2021/01/06 03:52:41;;;;;;;1999.90;999.90;;;;;;;0.95;97.99;101282.29;1807948;77;20953;-63
2021/01/06 03:55:23;;;;;;;1999.90;999.90;;;;;;;0.95;98.02;101280.92;1784956;79;20977;-61
2021/01/06 03:57:53;;;;;;;1999.90;999.90;;;;;;;0.97;97.98;101283.42;1773455;78;21118;-61
2021/01/06 04:00:52;;;;;;;1999.90;999.90;;;;;;;0.98;97.94;101274.19;1814274;77;21092;-64
2021/01/06 04:03:31;;;;;;;1999.90;999.90;;;;;;;0.97;97.95;101282.06;1762531;80;22371;-60
2021/01/06 04:05:59;;;;;;;1999.90;999.90;;;;;;;0.99;97.91;101284.56;1783206;79;21541;-63
2021/01/06 04:08:49;;;;;;;1999.90;999.90;;;;;;;1.00;97.88;101284.86;1777344;79;21136;-61
2021/01/06 04:11:20;;;;;;;1999.90;999.90;;;;;;;1.02;97.84;101275.92;1791268;79;21042;-64
2021/01/06 04:13:48;;;;;;;1999.90;999.90;;;;;;;1.03;97.78;101274.87;1757240;80;21108;-64
2021/01/06 04:16:16;;;;;;;1999.90;999.90;;;;;;;1.03;97.71;101268.05;1801695;77;21488;-61
2021/01/06 04:18:43;;;;;;;1999.90;999.90;;;;;;;1.02;97.67;101263.13;1788440;79;21017;-63
2021/01/06 04:21:12;;;;;;;1999.90;999.90;;;;;;;1.03;97.72;101259.88;1777185;78;21131;-62
2021/01/06 04:23:40;;;;;;;1999.90;999.90;;;;;;;1.04;97.79;101263.73;1789927;79;21551;-63
2021/01/06 04:26:11;;;;;;;1999.90;999.90;;;;;;;1.07;97.70;101262.45;1796857;77;20997;-63
2021/01/06 04:28:39;;;;;;;1999.90;999.90;;;;;;;1.05;97.61;101257.75;1787673;78;21479;-64
2021/01/06 04:31:16;;;;;;;1999.90;999.90;;;;;;;1.03;97.63;101258.52;1795379;78;21106;-64
2021/01/06 04:33:46;;;;;;;1999.90;999.90;;;;;;;1.02;97.69;101259.04;1765831;80;20969;-61
2021/01/06 04:36:29;;;;;;;1999.90;999.90;;;;;;;1.05;97.77;101263.20;1807036;77;20953;-64
2021/01/06 04:39:01;;;;;;;1999.90;999.90;;;;;;;1.05;97.67;101263.20;1811763;77;20946;-63
2021/01/06 04:41:40;;;;;;;1999.90;999.90;;;;;;;1.04;97.61;101264.27;1807983;77;22210;-61
2021/01/06 04:44:48;;;;;;;1999.90;999.90;;;;;;;1.04;97.64;101265.09;1810886;77;20969;-61
2021/01/06 04:47:50;;;;;;;1999.90;999.90;;;;;;;1.06;97.72;101270.32;1805442;77;21542;-61
2021/01/06 04:50:50;;;;;;;1999.90;999.90;;;;;;;1.10;97.73;101261.98;1723465;81;21132;-63
2021/01/06 04:53:57;;;;;;;1999.90;999.90;;;;;;;1.11;97.56;101268.58;1774806;78;21530;-63
2021/01/06 04:56:50;;;;;;;1999.90;999.90;;;;;;;1.08;97.50;101272.28;1813115;77;21438;-61
2021/01/06 04:59:48;;;;;;;1999.90;999.90;;;;;;;1.06;97.54;101279.86;1782386;79;21508;-61
2021/01/06 05:02:41;;;;;;;1999.90;999.90;;;;;;;1.07;97.59;101274.18;1835538;75;23309;-61
2021/01/06 05:05:29;;;;;;;1999.90;999.90;;;;;;;1.03;97.61;101280.31;1798153;78;21000;-61
2021/01/06 05:08:37;;;;;;;1999.90;999.90;;;;;;;1.00;97.66;101275.32;1809786;79;21149;-64
2021/01/06 05:11:34;;;;;;;1999.90;999.90;;;;;;;1.00;97.66;101273.42;1796492;79;21621;-66
2021/01/06 05:14:16;;;;;;;1999.90;999.90;;;;;;;1.00;97.63;101282.97;1805727;79;20999;-65
2021/01/06 05:16:49;;;;;;;1999.90;999.90;;;;;;;1.01;97.66;101276.98;1763260;79;20987;-65
2021/01/06 05:19:32;;;;;;;1999.90;999.90;;;;;;;1.01;97.66;101277.82;1739014;81;20965;-66
2021/01/06 05:22:00;;;;;;;1999.90;999.90;;;;;;;1.02;97.64;101280.02;1765788;81;22279;-65
2021/01/06 05:24:38;;;;;;;1999.90;999.90;;;;;;;1.02;97.63;101284.10;1764307;81;21038;-63
2021/01/06 05:27:18;;;;;;;1999.90;999.90;;;;;;;1.02;97.58;101290.39;1760896;80;20984;-63
2021/01/06 05:29:57;;;;;;;1999.90;999.90;;;;;;;1.02;97.54;101287.66;1759906;80;21150;-64
2021/01/06 05:32:33;;;;;;;1999.90;999.90;;;;;;;1.03;97.49;101281.68;1764492;80;21107;-63
2021/01/06 05:35:05;;;;;;;1999.90;999.90;;;;;;;1.04;97.49;101293.72;1756711;80;21386;-65
2021/01/06 05:37:35;;;;;;;1999.90;999.90;;;;;;;1.06;97.49;101298.94;1755458;80;21556;-63
2021/01/06 05:40:08;;;;;;;1999.90;999.90;;;;;;;1.06;97.49;101298.94;1763444;81;21122;-63
2021/01/06 05:42:54;;;;;;;1999.90;999.90;;;;;;;1.06;97.30;101298.41;1763577;81;21014;-63
2021/01/06 05:45:52;;;;;;;1999.90;999.90;;;;;;;1.12;97.30;101296.14;1819626;76;22761;-63
2021/01/06 05:48:33;;;;;;;1999.90;999.90;;;;;;;1.07;97.28;101298.72;1746128;78;21088;-64
2021/01/06 05:51:14;;;;;;;1999.90;999.90;;;;;;;1.08;97.25;101291.37;1784512;78;21533;-64
2021/01/06 05:54:04;;;;;;;1999.90;999.90;;;;;;;1.10;97.24;101290.61;1729994;80;21707;-65
2021/01/06 05:56:40;;;;;;;1999.90;999.90;;;;;;;1.10;97.21;101298.79;1737814;81;21063;-62
2021/01/06 05:59:48;;;;;;;1999.90;999.90;;;;;;;1.10;97.21;101302.34;1720660;81;21123;-61
2021/01/06 06:02:37;;;;;;;1999.90;999.90;;;;;;;1.09;97.17;101299.85;1784650;79;20998;-65
2021/01/06 06:05:39;;;;;;;1999.90;999.90;;;;;;;1.10;97.20;101301.52;1770698;79;22265;-64
2021/01/06 06:08:47;;;;;;;1999.90;999.90;;;;;;;1.10;97.17;101301.52;1767085;79;21107;-62
2021/01/06 06:11:40;;;;;;;1999.90;999.90;;;;;;;1.10;97.21;101302.88;1781210;79;21040;-62
2021/01/06 06:14:37;;;;;;;1999.90;999.90;;;;;;;1.09;97.23;101301.21;1766537;79;21150;-64
2021/01/06 06:17:38;;;;;;;1999.90;999.90;;;;;;;1.13;97.23;101309.23;1809585;76;22741;-61
2021/01/06 06:20:49;;;;;;;1999.90;999.90;;;;;;;1.07;97.31;101306.06;1774201;79;21103;-63
2021/01/06 06:23:45;;;;;;;1999.90;999.90;;;;;;;1.06;97.35;101312.58;1755543;79;21395;-63
2021/01/06 06:27:00;;;;;;;1999.90;999.90;;;;;;;1.04;97.49;101299.17;1780489;79;21526;-64
2021/01/06 06:29:48;;;;;;;1999.90;999.90;;;;;;;1.04;97.54;101300.53;1789247;79;21018;-63
2021/01/06 06:32:16;;;;;;;1999.90;999.90;;;;;;;1.06;97.58;101308.48;1783917;79;20989;-66
2021/01/06 06:34:44;;;;;;;1999.90;999.90;;;;;;;1.08;97.61;101300.38;1775503;79;21115;-65
2021/01/06 06:37:17;;;;;;;1999.90;999.90;;;;;;;1.07;97.54;101304.17;1779064;79;21371;-67
2021/01/06 06:39:48;;;;;;;1999.90;999.90;;;;;;;1.10;97.51;101304.24;1779188;79;20992;-66
2021/01/06 06:42:29;;;;;;;1999.90;999.90;;;;;;;1.11;97.54;101303.19;1772778;79;21020;-64
2021/01/06 06:45:13;;;;;;;1999.90;999.90;;;;;;;1.13;97.41;101310.60;1781238;79;21530;-67
2021/01/06 06:48:12;;;;;;;1999.90;999.90;;;;;;;1.15;97.31;101312.57;1780057;79;21626;-66
2021/01/06 06:50:54;;;;;;;1999.90;999.90;;;;;;;1.18;97.22;101308.03;1778358;79;21193;-66
2021/01/06 06:53:53;;;;;;;1999.90;999.90;;;;;;;1.21;97.17;101315.75;1750461;79;20993;-65
2021/01/06 06:56:33;;;;;;;1999.90;999.90;;;;;;;1.24;97.15;101316.66;1780184;79;20984;-64
2021/01/06 06:59:20;;;;;;;1999.90;999.90;;;;;;;1.27;97.17;101319.76;1775638;79;20961;-64
2021/01/06 07:01:48;;;;;;;1999.90;999.90;;;;;;;1.31;97.18;101322.86;1771057;79;21066;-66
2021/01/06 07:04:24;;;;;;;1999.90;999.90;;;;;;;1.34;97.17;101316.11;1786652;79;21432;-64
2021/01/06 07:06:54;;;;;;;1999.90;999.90;;;;;;;1.33;97.12;101319.91;1777180;79;21083;-64
2021/01/06 07:09:34;;;;;;;1999.90;999.90;;;;;;;1.32;97.18;101320.97;1772331;79;21087;-61
2021/01/06 07:12:11;;;;;;;1999.90;999.90;;;;;;;1.33;97.32;101318.01;1777198;79;21074;-64
2021/01/06 07:14:57;;;;;;;1999.90;999.90;;;;;;;1.36;97.45;101323.01;1774326;79;20970;-64
2021/01/06 07:17:37;;;;;;;1999.90;999.90;;;;;;;1.38;97.55;101322.78;1799855;78;22325;-66
2021/01/06 07:20:12;;;;;;;1999.90;999.90;;;;;;;1.40;97.63;101318.76;1798560;78;21126;-62
2021/01/06 07:22:46;;;;;;;1999.90;999.90;;;;;;;1.41;97.75;101321.78;1792990;78;21107;-65
2021/01/06 07:25:28;;;;;;;1999.90;999.90;;;;;;;1.42;97.82;101317.16;1796403;78;21100;-61
2021/01/06 07:27:58;;;;;;;1999.90;999.90;;;;;;;1.40;97.90;101318.76;1773011;78;21513;-65
2021/01/06 07:30:39;;;;;;;1999.90;999.90;;;;;;;1.42;98.06;101315.80;1770899;78;21271;-64
2021/01/06 07:33:34;;;;;;;1999.90;999.90;;;;;;;1.42;98.09;101319.36;1790562;78;20983;-62
2021/01/06 07:36:15;;;;;;;1999.90;999.90;;;;;;;1.40;98.23;101324.21;1799690;78;20976;-67
2021/01/06 07:38:44;;;;;;;1999.90;999.90;;;;;;;1.40;98.39;101322.84;1794493;78;21119;-64
2021/01/06 07:41:13;;;;;;;1999.90;999.90;;;;;;;1.41;98.50;101330.50;1797130;78;21122;-65
2021/01/06 07:44:00;;;;;;;1999.90;999.90;;;;;;;1.38;98.67;101330.43;1795485;78;21981;-60
2021/01/06 07:46:28;;;;;;;1999.90;999.90;;;;;;;1.36;98.93;101334.45;1796200;78;21005;-63
2021/01/06 07:49:11;;;;;;;1999.90;999.90;;;;;;;1.32;99.16;101334.07;1734379;79;20967;-64
2021/01/06 07:51:56;;;;;;;1999.90;999.90;;;;;;;1.33;99.34;101337.63;1781073;78;20956;-63
2021/01/06 07:54:41;;;;;;;1999.90;999.90;;;;;;;1.34;99.60;101329.75;1778056;79;21095;-62
2021/01/06 07:57:35;;;;;;;1999.90;999.90;;;;;;;1.32;99.81;101330.51;1780377;79;21372;-63
2021/01/06 08:00:10;;;;;;;1999.90;999.90;;;;;;;1.31;99.97;101334.30;1782772;79;21578;-63
2021/01/06 08:05:30;;;;;;;1999.90;999.90;;;;;;;1.35;100.00;101328.16;1823737;76;22783;-63
2021/01/06 08:08:12;;;;;;;1999.90;999.90;;;;;;;1.30;100.00;101333.47;1801450;79;20981;-71
2021/01/06 08:10:43;;;;;;;1999.90;999.90;;;;;;;1.31;100.00;101337.03;1795963;79;21369;-66
2021/01/06 08:13:38;;;;;;;1999.90;999.90;;;;;;;1.38;100.00;101344.59;1827017;76;22842;-67
2021/01/06 08:16:20;;;;;;;1999.90;999.90;;;;;;;1.34;100.00;101340.12;1801934;77;20921;-63
2021/01/06 08:19:17;;;;;;;1999.90;999.90;;;;;;;1.32;100.00;101335.44;1791841;78;21201;-61
2021/01/06 08:22:00;;;;;;;1999.90;999.90;;;;;;;1.32;100.00;101330.51;1791832;78;21123;-65
2021/01/06 08:24:45;;;;;;;1999.90;999.90;;;;;;;1.31;100.00;101329.68;1798104;78;20956;-61
2021/01/06 08:27:16;;;;;;;1999.90;999.90;;;;;;;1.36;100.00;101324.38;1775753;79;21114;-64
2021/01/06 08:29:44;;;;;;;1999.90;999.90;;;;;;;1.40;100.00;101322.02;1803959;78;21103;-60
2021/01/06 08:32:22;;;;;;;1999.90;999.90;;;;;;;1.42;100.00;101326.18;1790675;78;21558;-61
2021/01/06 08:34:56;;;;;;;1999.90;999.90;;;;;;;1.45;100.00;101329.81;1799184;78;20965;-61
2021/01/06 08:37:31;;;;;;;1999.90;999.90;;;;;;;1.50;100.00;101333.22;1768304;79;20981;-65
2021/01/06 08:40:26;;;;;;;1999.90;999.90;;;;;;;1.55;100.00;101323.81;1870759;74;22270;-61
2021/01/06 08:42:54;;;;;;;1999.90;999.90;;;;;;;1.51;100.00;101323.44;1838167;75;21287;-61
2021/01/06 08:45:31;;;;;;;1999.90;999.90;;;;;;;1.47;100.00;101323.59;1832713;77;21192;-63
2021/01/06 08:48:30;;;;;;;1999.90;999.90;;;;;;;1.46;100.00;101319.20;1838199;77;21138;-61
2021/01/06 08:51:11;;;;;;;1999.90;999.90;;;;;;;1.43;100.00;101314.73;1826749;77;21554;-66
2021/01/06 08:53:43;;;;;;;1999.90;999.90;;;;;;;1.42;100.00;101316.63;1838779;77;20980;-64
2021/01/06 08:56:22;;;;;;;1999.90;999.90;;;;;;;1.39;100.00;101315.73;1831380;77;20995;-63
2021/01/06 08:58:53;;;;;;;1999.90;999.90;;;;;;;1.40;100.00;101315.20;1844157;77;21533;-63
2021/01/06 09:01:38;;;;;;;1999.90;999.90;;;;;;;1.40;100.00;101320.12;1836423;77;20969;-62
2021/01/06 09:04:14;;;;;;;1999.90;999.90;;;;;;;1.42;100.00;101322.63;1815668;78;20957;-62
2021/01/06 09:07:18;;;;;;;1999.90;999.90;;;;;;;1.44;100.00;101321.33;1837302;77;21161;-64
2021/01/06 09:10:12;;;;;;;1999.90;999.90;;;;;;;1.46;100.00;101315.64;1833066;77;21134;-62
2021/01/06 09:13:05;;;;;;;1999.90;999.90;;;;;;;1.52;100.00;101307.91;1810273;77;21218;-63
2021/01/06 09:15:53;;;;;;;1999.90;999.90;;;;;;;1.55;100.00;101315.09;1804577;78;21712;-63
2021/01/06 09:18:37;;;;;;;1999.90;999.90;;;;;;;1.54;100.00;101315.33;1837266;77;21515;-64
2021/01/06 09:21:16;;;;;;;1999.90;999.90;;;;;;;1.52;100.00;101321.02;1817350;77;21501;-62
2021/01/06 09:23:50;;;;;;;1999.90;999.90;;;;;;;1.49;100.00;101316.02;1837140;77;21090;-64
2021/01/06 09:26:21;;;;;;;1999.90;999.90;;;;;;;1.48;100.00;101314.35;1819341;77;22111;-63
2021/01/06 09:29:00;;;;;;;1999.90;999.90;;;;;;;1.48;100.00;101311.63;1841870;77;21547;-63
2021/01/06 09:31:28;;;;;;;1999.90;999.90;;;;;;;1.49;100.00;101310.56;1835803;77;21542;-64
2021/01/06 09:33:57;;;;;;;1999.90;999.90;;;;;;;1.51;100.00;101308.44;1814481;77;20933;-64
2021/01/06 09:36:26;;;;;;;1999.90;999.90;;;;;;;1.52;100.00;101310.09;1829203;77;20956;-64
2021/01/06 09:38:54;;;;;;;1999.90;999.90;;;;;;;1.51;100.00;101309.80;1814936;77;21364;-65
2021/01/06 09:41:28;;;;;;;1999.90;999.90;;;;;;;1.50;100.00;101304.57;1771511;78;21134;-63
2021/01/06 09:44:08;;;;;;;1999.90;999.90;;;;;;;1.49;100.00;101307.00;1784064;79;21142;-64
2021/01/06 09:46:57;;;;;;;1999.90;999.90;;;;;;;1.49;100.00;101305.64;1809266;78;20956;-64
2021/01/06 09:49:30;;;;;;;1999.90;999.90;;;;;;;1.48;100.00;101303.97;1807578;77;20944;-65
2021/01/06 09:52:02;;;;;;;1999.90;999.90;;;;;;;1.40;100.00;101317.39;1800727;78;21253;-63
2021/01/06 09:54:29;;;;;;;1999.90;999.90;;;;;;;1.36;100.00;101314.83;1787895;78;20968;-67
2021/01/06 09:56:57;;;;;;;1999.90;999.90;;;;;;;1.31;100.00;101302.41;1811492;78;20949;-67
2021/01/06 09:59:30;;;;;;;1999.90;999.90;;;;;;;1.32;100.00;101301.87;1808672;78;21000;-65
2021/01/06 10:02:06;;;;;;;1999.90;999.90;;;;;;;1.36;100.00;101296.27;1806865;78;21499;-65
2021/01/06 10:04:40;;;;;;;1999.90;999.90;;;;;;;1.39;100.00;101293.91;1805979;78;21284;-67
2021/01/06 10:07:47;;;;;;;1999.90;999.90;;;;;;;1.42;100.00;101298.91;1807582;78;21534;-68
2021/01/06 10:10:20;;;;;;;1999.90;999.90;;;;;;;1.46;100.00;101302.84;1812892;78;21119;-69
2021/01/06 10:13:14;;;;;;;1999.90;999.90;;;;;;;1.53;100.00;101297.29;1809527;78;21111;-69
2021/01/06 10:15:58;;;;;;;1999.90;999.90;;;;;;;1.57;100.00;101301.22;1749049;78;21075;-69
2021/01/06 10:19:06;;;;;;;1999.90;999.90;;;;;;;1.56;100.00;101303.12;1796289;78;21375;-70
2021/01/06 10:22:08;;;;;;;1999.90;999.90;;;;;;;1.54;100.00;101298.95;1806168;78;21793;-64
2021/01/06 10:24:56;;;;;;;1999.90;999.90;;;;;;;1.53;100.00;101306.84;1811016;78;21535;-67
2021/01/06 10:27:34;;;;;;;1999.90;999.90;;;;;;;1.53;100.00;101300.85;1809475;78;20964;-68
2021/01/06 10:30:15;;;;;;;1999.90;999.90;;;;;;;1.55;100.00;101305.55;1809361;77;21533;-65
2021/01/06 10:33:06;;;;;;;1999.90;999.90;;;;;;;1.55;100.00;101301.45;1805982;78;21256;-68
2021/01/06 10:35:47;;;;;;;1999.90;999.90;;;;;;;1.54;100.00;101303.88;1810155;78;21221;-65
2021/01/06 10:38:23;;;;;;;1999.90;999.90;;;;;;;1.57;100.00;101301.22;1802005;78;20964;-63
2021/01/06 10:40:55;;;;;;;1999.90;999.90;;;;;;;1.59;100.00;101299.09;1794887;78;20965;-63
2021/01/06 10:43:42;;;;;;;1999.90;999.90;;;;;;;1.61;100.00;101302.42;1779030;78;21554;-62
2021/01/06 10:46:46;;;;;;;1999.90;999.90;;;;;;;1.59;100.00;101305.39;1789676;78;21367;-68
2021/01/06 10:49:23;;;;;;;1999.90;999.90;;;;;;;1.57;100.00;101300.69;1799037;78;21102;-70
2021/01/06 10:52:10;;;;;;;1999.90;999.90;;;;;;;1.59;100.00;101308.64;1795336;78;21151;-70
2021/01/06 10:54:56;;;;;;;1999.90;999.90;;;;;;;1.60;100.00;101304.85;1800075;78;21114;-71
2021/01/06 10:57:31;;;;;;;1999.90;999.90;;;;;;;1.60;100.00;101306.22;1790489;78;21103;-66
2021/01/06 11:00:20;;;;;;;1999.90;999.90;;;;;;;1.61;100.00;101309.25;1796715;78;22252;-67
2021/01/06 11:03:43;;;;;;;1999.90;999.90;;;;;;;1.63;100.00;101311.74;1798314;78;21809;-69
2021/01/06 11:06:35;;;;;;;1999.90;999.90;;;;;;;1.61;100.00;101308.72;1791377;78;21012;-64
2021/01/06 11:09:44;;;;;;;1999.90;999.90;;;;;;;1.59;100.00;101313.57;1795902;78;21099;-63
2021/01/06 11:12:46;;;;;;;1999.90;999.90;;;;;;;1.63;100.00;101309.02;1794061;76;27949;-66
2021/01/06 11:15:32;;;;;;;1999.90;999.90;;;;;;;1.63;100.00;101311.21;1791611;79;21035;-69
2021/01/06 11:18:16;;;;;;;1999.90;999.90;;;;;;;1.66;100.00;101312.64;1797129;79;21377;-61
2021/01/06 11:20:49;;;;;;;1999.90;999.90;;;;;;;1.66;100.00;101309.92;1795733;78;20984;-72
2021/01/06 11:23:29;;;;;;;1999.90;999.90;;;;;;;1.67;100.00;101306.95;1797563;79;20977;-71
2021/01/06 11:26:03;;;;;;;1999.90;999.90;;;;;;;1.65;100.00;101310.98;1799629;77;21513;-65
2021/01/06 11:29:24;;;;;;;1999.90;999.90;;;;;;;1.66;100.00;101306.66;1769306;79;20933;-63
2021/01/06 11:32:12;;;;;;;1999.90;999.90;;;;;;;1.68;100.00;101314.08;1796868;79;22437;-71
2021/01/06 11:34:43;;;;;;;1999.90;999.90;;;;;;;1.68;100.00;101305.89;1791190;79;20925;-70
2021/01/06 11:37:30;;;;;;;1999.90;999.90;;;;;;;1.66;100.00;101299.00;1767693;79;20967;-64
2021/01/06 11:39:58;;;;;;;1999.90;999.90;;;;;;;1.64;100.00;101301.96;1797748;79;21083;-70
2021/01/06 11:43:04;;;;;;;1999.90;999.90;;;;;;;1.63;100.00;101299.46;1805751;78;21071;-67
2021/01/06 11:45:46;;;;;;;1999.90;999.90;;;;;;;1.72;100.00;101300.80;1815111;76;22739;-63
2021/01/06 11:48:35;;;;;;;1999.90;999.90;;;;;;;1.65;100.00;101302.27;1782945;80;20964;-66